createdAt,value
2022-12-01T00:01:06.023Z,102681.25
2022-12-01T00:03:33.269Z,102672.56
2022-12-01T00:06:05.901Z,102666.50
2022-12-01T00:08:33.840Z,102674.31
2022-12-01T00:11:08.685Z,102674.31
2022-12-01T00:13:35.625Z,102676.91
2022-12-01T00:16:15.377Z,102675.19
2022-12-01T00:18:42.281Z,102668.22
2022-12-01T00:21:16.038Z,102675.16
2022-12-01T00:23:47.434Z,102673.44
2022-12-01T00:26:15.030Z,102668.22
2022-12-01T00:28:41.759Z,102664.75
2022-12-01T00:31:12.147Z,102667.34
2022-12-01T00:33:39.488Z,102662.09
2022-12-01T00:36:07.375Z,102663.81
2022-12-01T00:38:34.489Z,102660.34
2022-12-01T00:41:00.955Z,102660.34
2022-12-01T00:43:27.364Z,102664.69
2022-12-01T00:45:53.867Z,102660.41
2022-12-01T00:48:20.764Z,102664.75
2022-12-01T00:50:47.506Z,102669.97
2022-12-01T00:53:14.947Z,102669.09
2022-12-01T00:55:41.314Z,102673.41
2022-12-01T00:58:07.778Z,102674.25
2022-12-01T01:00:34.665Z,102676.00
2022-12-01T01:03:01.582Z,102677.72
2022-12-01T01:05:27.939Z,102679.44
2022-12-01T01:07:54.427Z,102682.03
2022-12-01T01:10:20.898Z,102688.97
2022-12-01T01:12:47.272Z,102682.91
2022-12-01T01:15:13.679Z,102684.63
2022-12-01T01:17:40.072Z,102692.44
2022-12-01T01:20:07.153Z,102700.22
2022-12-01T01:22:35.123Z,102697.63
2022-12-01T01:25:01.668Z,102699.38
2022-12-01T01:27:28.196Z,102696.75
2022-12-01T01:29:54.527Z,102697.63
2022-12-01T01:32:20.958Z,102699.38
2022-12-01T01:34:47.343Z,102699.34
2022-12-01T01:37:13.740Z,102701.06
2022-12-01T01:39:40.814Z,102705.44
2022-12-01T01:42:12.490Z,102707.19
2022-12-01T01:44:50.044Z,102691.56
2022-12-01T01:47:22.089Z,102701.09
2022-12-01T01:49:48.984Z,102700.22
2022-12-01T01:52:16.281Z,102701.97
2022-12-01T01:54:47.048Z,102696.75
2022-12-01T01:57:20.631Z,102704.56
2022-12-01T01:59:52.512Z,102695.00
2022-12-01T02:02:18.982Z,102701.94
2022-12-01T02:04:48.652Z,102701.94
2022-12-01T02:07:18.663Z,102707.19
2022-12-01T02:09:45.316Z,102705.44
2022-12-01T02:12:36.089Z,102708.88
2022-12-01T02:15:37.332Z,102703.66
2022-12-01T02:18:26.506Z,102708.00
2022-12-01T02:21:27.770Z,102700.19
2022-12-01T02:24:26.406Z,102706.25
2022-12-01T02:27:05.049Z,102701.84
2022-12-01T02:29:41.641Z,102703.59
2022-12-01T02:32:29.903Z,102701.84
2022-12-01T02:35:14.584Z,102700.97
2022-12-01T02:38:05.871Z,102697.56
2022-12-01T02:40:41.370Z,102694.97
2022-12-01T02:43:17.677Z,102694.97
2022-12-01T02:45:53.631Z,102698.38
2022-12-01T02:48:27.327Z,102699.25
2022-12-01T02:50:57.983Z,102704.44
2022-12-01T02:53:24.702Z,102699.22
2022-12-01T02:55:57.702Z,102696.59
2022-12-01T02:58:24.333Z,102698.31
2022-12-01T03:01:20.128Z,102694.81
2022-12-01T03:04:22.232Z,102700.03
2022-12-01T03:07:10.695Z,102701.69
2022-12-01T03:09:44.610Z,102701.69
2022-12-01T03:12:23.537Z,102702.56
2022-12-01T03:15:03.412Z,102703.44
2022-12-01T03:17:43.279Z,102701.69
2022-12-01T03:20:23.539Z,102703.44
2022-12-01T03:22:55.503Z,102706.00
2022-12-01T03:25:26.175Z,102699.94
2022-12-01T03:28:20.327Z,102698.22
2022-12-01T03:30:45.213Z,102696.50
2022-12-01T03:33:19.122Z,102701.69
2022-12-01T03:35:53.941Z,102700.81
2022-12-01T03:38:28.871Z,102701.66
2022-12-01T03:41:00.834Z,102692.13
2022-12-01T03:43:33.369Z,102700.78
2022-12-01T03:46:09.172Z,102694.72
2022-12-01T03:48:36.892Z,102699.06
2022-12-01T03:51:14.030Z,102699.91
2022-12-01T03:54:09.579Z,102706.88
2022-12-01T03:57:00.197Z,102704.22
2022-12-01T03:59:29.397Z,102695.50
2022-12-01T04:01:57.353Z,102696.34
2022-12-01T04:04:24.503Z,102696.34
2022-12-01T04:06:51.347Z,102698.16
2022-12-01T04:09:17.928Z,102695.56
2022-12-01T04:12:03.173Z,102694.69
2022-12-01T04:14:30.140Z,102698.19
2022-12-01T04:16:56.507Z,102699.03
2022-12-01T04:19:23.886Z,102706.84
2022-12-01T04:21:50.241Z,102705.13
2022-12-01T04:24:16.751Z,102710.31
2022-12-01T04:26:43.407Z,102705.03
2022-12-01T04:29:10.853Z,102702.44
2022-12-01T04:31:37.672Z,102701.63
2022-12-01T04:34:04.603Z,102710.31
2022-12-01T04:36:32.638Z,102705.03
2022-12-01T04:38:59.208Z,102709.38
2022-12-01T04:41:25.595Z,102710.22
2022-12-01T04:43:55.807Z,102705.03
2022-12-01T04:46:23.163Z,102711.94
2022-12-01T04:48:49.591Z,102712.81
2022-12-01T04:51:16.057Z,102708.47
2022-12-01T04:53:42.496Z,102703.25
2022-12-01T04:56:09.214Z,102711.91
2022-12-01T04:58:37.611Z,102704.09
2022-12-01T05:01:06.388Z,102715.38
2022-12-01T05:03:36.614Z,102711.03
2022-12-01T05:06:08.239Z,102712.81
2022-12-01T05:08:35.859Z,102716.28
2022-12-01T05:11:02.792Z,102711.94
2022-12-01T05:13:29.305Z,102718.88
2022-12-01T05:16:06.240Z,102716.25
2022-12-01T05:18:32.914Z,102711.09
2022-12-01T05:20:59.455Z,102718.00
2022-12-01T05:23:27.630Z,102725.81
2022-12-01T05:25:54.731Z,102728.41
2022-12-01T05:28:23.390Z,102725.81
2022-12-01T05:30:50.507Z,102727.56
2022-12-01T05:33:17.350Z,102730.16
2022-12-01T05:35:44.236Z,102725.84
2022-12-01T05:38:11.064Z,102718.91
2022-12-01T05:40:37.484Z,102724.16
2022-12-01T05:43:04.503Z,102725.84
2022-12-01T05:45:31.580Z,102730.13
2022-12-01T05:47:59.760Z,102723.16
2022-12-01T05:50:27.521Z,102731.81
2022-12-01T05:52:55.288Z,102730.09
2022-12-01T05:55:22.798Z,102724.84
2022-12-01T05:57:49.270Z,102727.50
2022-12-01T06:00:16.305Z,102731.00
2022-12-01T06:02:42.875Z,102734.47
2022-12-01T06:05:09.534Z,102734.50
2022-12-01T06:07:35.936Z,102736.22
2022-12-01T06:10:03.288Z,102732.72
2022-12-01T06:12:29.634Z,102737.91
2022-12-01T06:14:56.057Z,102738.78
2022-12-01T06:17:22.410Z,102745.66
2022-12-01T06:19:49.108Z,102740.44
2022-12-01T06:22:15.686Z,102740.44
2022-12-01T06:24:42.151Z,102742.16
2022-12-01T06:27:08.549Z,102734.38
2022-12-01T06:29:40.582Z,102744.84
2022-12-01T06:32:09.478Z,102747.44
2022-12-01T06:34:35.861Z,102748.31
2022-12-01T06:37:02.243Z,102749.19
2022-12-01T06:39:28.695Z,102756.09
2022-12-01T06:41:55.134Z,102756.06
2022-12-01T06:44:21.479Z,102757.78
2022-12-01T06:46:52.699Z,102768.16
2022-12-01T06:49:19.705Z,102771.63
2022-12-01T06:51:46.375Z,102775.06
2022-12-01T06:54:12.827Z,102768.13
2022-12-01T06:56:39.500Z,102763.81
2022-12-01T06:59:06.195Z,102769.88
2022-12-01T07:01:33.072Z,102766.38
2022-12-01T07:03:59.567Z,102776.69
2022-12-01T07:06:26.127Z,102778.47
2022-12-01T07:08:53.074Z,102769.75
2022-12-01T07:11:19.485Z,102781.94
2022-12-01T07:13:46.007Z,102787.09
2022-12-01T07:16:12.928Z,102785.38
2022-12-01T07:18:40.383Z,102781.94
2022-12-01T07:21:10.116Z,102786.22
2022-12-01T07:23:36.578Z,102789.63
2022-12-01T07:26:11.113Z,102790.50
2022-12-01T07:28:37.645Z,102789.59
2022-12-01T07:31:06.182Z,102788.72
2022-12-01T07:33:32.755Z,102782.59
2022-12-01T07:35:59.131Z,102788.63
2022-12-01T07:38:27.680Z,102786.94
2022-12-01T07:40:54.111Z,102785.19
2022-12-01T07:43:20.487Z,102782.59
2022-12-01T07:45:47.172Z,102780.91
2022-12-01T07:48:13.648Z,102793.03
2022-12-01T07:50:40.057Z,102794.72
2022-12-01T07:53:06.730Z,102785.19
2022-12-01T07:55:33.251Z,102787.78
2022-12-01T07:58:00.688Z,102799.03
2022-12-01T08:00:27.232Z,102800.78
2022-12-01T08:02:53.597Z,102791.31
2022-12-01T08:05:20.003Z,102801.75
2022-12-01T08:07:46.431Z,102800.00
2022-12-01T08:10:12.838Z,102805.25
2022-12-01T08:12:39.200Z,102812.22
2022-12-01T08:15:06.021Z,102816.63
2022-12-01T08:17:32.446Z,102810.59
2022-12-01T08:19:58.792Z,102814.09
2022-12-01T08:22:25.217Z,102812.34
2022-12-01T08:24:51.545Z,102817.50
2022-12-01T08:27:17.982Z,102817.44
2022-12-01T08:29:44.419Z,102816.56
2022-12-01T08:32:10.838Z,102817.44
2022-12-01T08:34:38.554Z,102820.13
2022-12-01T08:37:04.947Z,102820.19
2022-12-01T08:39:31.378Z,102814.09
2022-12-01T08:41:57.814Z,102814.94
2022-12-01T08:44:24.257Z,102814.06
2022-12-01T08:46:50.718Z,102814.06
2022-12-01T08:49:17.323Z,102818.38
2022-12-01T08:51:43.748Z,102820.13
2022-12-01T08:54:12.161Z,102824.44
2022-12-01T08:56:42.174Z,102820.91
2022-12-01T08:59:09.008Z,102822.63
2022-12-01T09:01:51.551Z,102825.22
2022-12-01T09:04:19.889Z,102828.69
2022-12-01T09:06:48.192Z,102838.31
2022-12-01T09:09:20.937Z,102829.69
2022-12-01T09:11:47.878Z,102827.13
2022-12-01T09:14:16.535Z,102832.41
2022-12-01T09:16:44.854Z,102829.84
2022-12-01T09:19:13.183Z,102834.16
2022-12-01T09:21:42.634Z,102831.59
2022-12-01T09:24:13.807Z,102833.34
2022-12-01T09:26:40.872Z,102830.72
2022-12-01T09:29:10.302Z,102832.41
2022-12-01T09:31:37.871Z,102836.66
2022-12-01T09:34:07.090Z,102836.66
2022-12-01T09:36:35.200Z,102838.38
2022-12-01T09:39:02.205Z,102830.59
2022-12-01T09:41:35.485Z,102833.16
2022-12-01T09:44:15.161Z,102835.75
2022-12-01T09:46:49.782Z,102843.56
2022-12-01T09:49:23.786Z,102841.81
2022-12-01T09:51:52.466Z,102833.16
2022-12-01T09:54:18.929Z,102834.00
2022-12-01T09:56:50.201Z,102835.59
2022-12-01T09:59:20.692Z,102837.31
2022-12-01T10:01:50.895Z,102832.97
2022-12-01T10:04:22.766Z,102833.84
2022-12-01T10:06:57.902Z,102826.03
2022-12-01T10:09:48.600Z,102832.94
2022-12-01T10:12:18.117Z,102837.19
2022-12-01T10:14:46.392Z,102830.25
2022-12-01T10:17:28.255Z,102824.13
2022-12-01T10:20:03.388Z,102824.03
2022-12-01T10:22:49.245Z,102818.78
2022-12-01T10:25:24.772Z,102822.19
2022-12-01T10:28:12.463Z,102814.28
2022-12-01T10:30:49.759Z,102819.44
2022-12-01T10:33:24.810Z,102818.53
2022-12-01T10:35:51.715Z,102820.25
2022-12-01T10:38:27.822Z,102811.56
2022-12-01T10:40:58.443Z,102814.97
2022-12-01T10:43:37.523Z,102806.31
2022-12-01T10:46:19.714Z,102816.69
2022-12-01T10:48:57.762Z,102812.34
2022-12-01T10:51:25.716Z,102807.19
2022-12-01T10:54:07.074Z,102806.31
2022-12-01T10:56:33.969Z,102811.53
2022-12-01T10:59:16.923Z,102812.38
2022-12-01T11:01:48.170Z,102807.16
2022-12-01T11:04:29.557Z,102800.97
2022-12-01T11:06:56.890Z,102802.69
2022-12-01T11:09:28.966Z,102811.34
2022-12-01T11:12:01.040Z,102814.81
2022-12-01T11:14:46.507Z,102814.78
2022-12-01T11:17:22.368Z,102819.09
2022-12-01T11:19:49.272Z,102818.22
2022-12-01T11:22:25.371Z,102813.03
2022-12-01T11:24:59.693Z,102799.97
2022-12-01T11:27:30.471Z,102812.06
2022-12-01T11:30:04.954Z,102799.88
2022-12-01T11:32:35.366Z,102799.75
2022-12-01T11:35:14.212Z,102800.63
2022-12-01T11:38:13.310Z,102803.28
2022-12-01T11:40:45.838Z,102803.28
2022-12-01T11:43:23.377Z,102800.63
2022-12-01T11:45:50.207Z,102805.00
2022-12-01T11:48:29.710Z,102811.06
2022-12-01T11:51:20.244Z,102810.25
2022-12-01T11:54:23.496Z,102811.09
2022-12-01T11:57:17.363Z,102811.09
2022-12-01T11:59:38.305Z,102809.31
2022-12-01T12:02:20.932Z,102800.59
2022-12-01T12:05:18.208Z,102798.81
2022-12-01T12:08:05.614Z,102799.69
2022-12-01T12:10:44.001Z,102799.69
2022-12-01T12:13:25.195Z,102799.69
2022-12-01T12:16:19.799Z,102797.94
2022-12-01T12:19:28.968Z,102804.03
2022-12-01T12:22:11.956Z,102797.13
2022-12-01T12:24:48.793Z,102797.16
2022-12-01T12:27:29.278Z,102791.91
2022-12-01T12:30:26.132Z,102790.13
2022-12-01T12:33:33.319Z,102793.50
2022-12-01T12:36:38.633Z,102797.88
2022-12-01T12:39:36.735Z,102797.00
2022-12-01T12:42:14.721Z,102796.09
2022-12-01T12:44:51.573Z,102792.56
2022-12-01T12:47:50.992Z,102793.44
2022-12-01T12:50:31.946Z,102780.47
2022-12-01T12:53:04.562Z,102785.72
2022-12-01T12:55:39.744Z,102782.22
2022-12-01T12:58:26.910Z,102788.31
2022-12-01T13:01:03.424Z,102786.63
2022-12-01T13:03:49.031Z,102788.28
2022-12-01T13:06:25.795Z,102794.34
2022-12-01T13:08:59.153Z,102783.94
2022-12-01T13:11:40.093Z,102792.59
2022-12-01T13:14:15.629Z,102789.16
2022-12-01T13:16:46.392Z,102786.56
2022-12-01T13:19:16.589Z,102786.56
2022-12-01T13:21:46.842Z,102781.41
2022-12-01T13:24:23.388Z,102787.50
2022-12-01T13:26:55.978Z,102784.06
2022-12-01T13:29:25.486Z,102788.38
2022-12-01T13:31:53.722Z,102790.13
2022-12-01T13:34:39.707Z,102791.81
2022-12-01T13:37:08.918Z,102793.56
2022-12-01T13:39:40.853Z,102784.91
2022-12-01T13:42:35.064Z,102795.28
2022-12-01T13:45:10.426Z,102792.63
2022-12-01T13:47:51.381Z,102794.25
2022-12-01T13:50:36.159Z,102799.38
2022-12-01T13:53:17.783Z,102795.88
2022-12-01T13:56:16.459Z,102795.88
2022-12-01T13:58:53.183Z,102794.97
2022-12-01T14:01:19.860Z,102800.09
2022-12-01T14:04:11.222Z,102799.19
2022-12-01T14:06:49.266Z,102788.75
2022-12-01T14:09:33.236Z,102787.03
2022-12-01T14:12:06.341Z,102789.63
2022-12-01T14:14:36.961Z,102791.34
2022-12-01T14:17:04.517Z,102789.56
2022-12-01T14:19:39.371Z,102793.78
2022-12-01T14:22:07.610Z,102783.34
2022-12-01T14:24:43.482Z,102785.94
2022-12-01T14:27:11.883Z,102781.63
2022-12-01T14:29:42.957Z,102780.72
2022-12-01T14:32:09.366Z,102779.81
2022-12-01T14:34:39.452Z,102774.63
2022-12-01T14:37:20.833Z,102782.44
2022-12-01T14:39:58.086Z,102782.44
2022-12-01T14:42:51.897Z,102778.94
2022-12-01T14:45:34.134Z,102782.44
2022-12-01T14:48:04.260Z,102773.78
2022-12-01T14:51:10.587Z,102773.88
2022-12-01T14:53:41.865Z,102771.34
2022-12-01T14:56:16.166Z,102778.28
2022-12-01T14:59:00.537Z,102771.41
2022-12-01T15:01:33.908Z,102774.03
2022-12-01T15:04:03.201Z,102775.78
2022-12-01T15:06:31.991Z,102774.13
2022-12-01T15:12:07.514Z,102774.91
2022-12-01T15:14:47.079Z,102775.72
2022-12-01T15:17:31.083Z,102774.84
2022-12-01T15:19:58.598Z,102773.97
2022-12-01T15:22:30.532Z,102769.66
2022-12-01T15:25:15.141Z,102770.53
2022-12-01T15:27:43.158Z,102768.81
2022-12-01T15:30:14.456Z,102773.19
2022-12-01T15:32:45.607Z,102769.75
2022-12-01T15:35:20.549Z,102767.22
2022-12-01T15:37:47.484Z,102766.34
2022-12-01T15:43:14.330Z,102773.22
2022-12-01T15:46:09.841Z,102775.69
2022-12-01T15:48:37.190Z,102777.31
2022-12-01T15:51:09.895Z,102773.81
2022-12-01T15:53:39.870Z,102783.31
2022-12-01T15:56:09.016Z,102782.44
2022-12-01T15:58:42.067Z,102785.88
2022-12-01T16:01:12.970Z,102787.63
2022-12-01T16:03:52.414Z,102792.81
2022-12-01T16:06:20.928Z,102784.19
2022-12-01T16:09:18.816Z,102789.16
2022-12-01T16:12:18.703Z,102787.41
2022-12-01T16:14:54.489Z,102792.63
2022-12-01T16:17:22.158Z,102797.84
2022-12-01T16:19:48.595Z,102794.38
2022-12-01T16:22:20.110Z,102797.00
2022-12-01T16:24:51.362Z,102804.81
2022-12-01T16:27:25.151Z,102800.47
2022-12-01T16:29:59.012Z,102798.66
2022-12-01T16:32:25.403Z,102790.78
2022-12-01T16:34:52.838Z,102794.25
2022-12-01T16:37:21.437Z,102795.13
2022-12-01T16:39:48.234Z,102796.84
2022-12-01T16:42:16.691Z,102802.88
2022-12-01T16:44:44.552Z,102798.53
2022-12-01T16:47:25.244Z,102790.75
2022-12-01T16:49:52.392Z,102796.81
2022-12-01T16:55:18.962Z,102793.31
2022-12-01T16:57:45.396Z,102795.06
2022-12-01T17:00:12.268Z,102792.44
2022-12-01T17:02:38.700Z,102792.47
2022-12-01T17:05:05.302Z,102794.22
2022-12-01T17:07:31.843Z,102800.28
2022-12-01T17:09:58.317Z,102804.59
2022-12-01T17:12:26.636Z,102800.28
2022-12-01T17:14:53.037Z,102799.44
2022-12-01T17:17:19.396Z,102797.72
2022-12-01T17:19:45.860Z,102796.91
2022-12-01T17:22:12.278Z,102794.34
2022-12-01T17:24:39.015Z,102792.63
2022-12-01T17:27:05.483Z,102790.06
2022-12-01T17:29:31.871Z,102786.66
2022-12-01T17:31:58.297Z,102789.25
2022-12-01T17:34:24.763Z,102794.44
2022-12-01T17:36:52.532Z,102790.13
2022-12-01T17:39:19.382Z,102791.81
2022-12-01T17:41:45.826Z,102797.81
2022-12-01T17:44:12.348Z,102797.81
2022-12-01T17:46:38.841Z,102802.16
2022-12-01T17:49:09.307Z,102806.53
2022-12-01T17:51:36.624Z,102809.09
2022-12-01T17:54:03.275Z,102809.03
2022-12-01T17:56:29.767Z,102808.06
2022-12-01T17:58:56.356Z,102809.75
2022-12-01T18:01:28.453Z,102808.84
2022-12-01T18:03:58.174Z,102809.72
2022-12-01T18:06:25.634Z,102811.47
2022-12-01T18:08:53.095Z,102811.44
2022-12-01T18:11:20.347Z,102819.22
2022-12-01T18:13:48.733Z,102809.72
2022-12-01T18:16:24.970Z,102808.91
2022-12-01T18:18:52.207Z,102802.88
2022-12-01T18:21:21.086Z,102812.50
2022-12-01T18:23:58.301Z,102803.81
2022-12-01T18:26:26.461Z,102801.25
2022-12-01T18:28:54.702Z,102803.84
2022-12-01T18:31:21.237Z,102806.44
2022-12-01T18:33:47.712Z,102804.50
2022-12-01T18:36:20.493Z,102810.41
2022-12-01T18:38:47.574Z,102812.09
2022-12-01T18:41:14.631Z,102810.44
2022-12-01T18:43:41.303Z,102816.63
2022-12-01T18:46:08.849Z,102814.09
2022-12-01T18:48:35.473Z,102823.59
2022-12-01T18:51:04.546Z,102814.03
2022-12-01T18:53:31.467Z,102820.84
2022-12-01T18:56:02.594Z,102819.06
2022-12-01T18:58:29.668Z,102819.94
2022-12-01T19:00:56.135Z,102821.66
2022-12-01T19:03:22.631Z,102820.75
2022-12-01T19:05:49.214Z,102817.34
2022-12-01T19:08:15.618Z,102814.75
2022-12-01T19:10:42.159Z,102820.75
2022-12-01T19:13:08.569Z,102818.16
2022-12-01T19:15:36.954Z,102815.47
2022-12-01T19:18:03.448Z,102809.50
2022-12-01T19:20:29.923Z,102812.09
2022-12-01T19:22:56.349Z,102818.19
2022-12-01T19:25:22.704Z,102817.28
2022-12-01T19:27:51.064Z,102817.16
2022-12-01T19:30:17.599Z,102820.56
2022-12-01T19:32:44.282Z,102811.78
2022-12-01T19:35:11.059Z,102810.84
2022-12-01T19:37:37.439Z,102814.28
2022-12-01T19:40:05.339Z,102809.09
2022-12-01T19:42:32.097Z,102813.44
2022-12-01T19:44:59.454Z,102813.41
2022-12-01T19:47:25.795Z,102815.19
2022-12-01T19:49:52.507Z,102818.66
2022-12-01T19:52:18.839Z,102812.59
2022-12-01T19:54:49.692Z,102813.47
2022-12-01T19:57:16.286Z,102810.91
2022-12-01T19:59:42.633Z,102817.84
2022-12-01T20:02:10.530Z,102805.81
2022-12-01T20:04:38.763Z,102813.63
2022-12-01T20:07:05.723Z,102809.31
2022-12-01T20:09:32.241Z,102815.34
2022-12-01T20:11:58.602Z,102806.63
2022-12-01T20:14:25.082Z,102811.00
2022-12-01T20:16:54.648Z,102808.41
2022-12-01T20:19:21.234Z,102809.28
2022-12-01T20:21:48.496Z,102816.19
2022-12-01T20:24:18.524Z,102811.78
2022-12-01T20:26:48.127Z,102810.03
2022-12-01T20:29:17.612Z,102808.34
2022-12-01T20:31:44.822Z,102807.53
2022-12-01T20:34:18.178Z,102804.84
2022-12-01T20:36:44.806Z,102807.41
2022-12-01T20:39:11.743Z,102802.22
2022-12-01T20:41:39.706Z,102801.41
2022-12-01T20:44:07.678Z,102803.16
2022-12-01T20:46:35.759Z,102803.13
2022-12-01T20:49:02.195Z,102803.13
2022-12-01T20:51:28.537Z,102806.56
2022-12-01T20:54:26.206Z,102803.97
2022-12-01T20:56:41.346Z,102802.19
2022-12-01T20:59:07.891Z,102800.31
2022-12-01T21:01:34.460Z,102803.75
2022-12-01T21:04:00.959Z,102802.94
2022-12-01T21:06:29.029Z,102814.28
2022-12-01T21:08:55.589Z,102799.47
2022-12-01T21:11:47.424Z,102802.94
2022-12-01T21:14:25.852Z,102801.19
2022-12-01T21:16:56.586Z,102799.56
2022-12-01T21:19:30.424Z,102801.28
2022-12-01T21:21:58.212Z,102795.94
2022-12-01T21:24:33.523Z,102792.47
2022-12-01T21:27:12.593Z,102795.06
2022-12-01T21:29:49.436Z,102798.59
2022-12-01T21:32:20.863Z,102794.19
2022-12-01T21:34:48.055Z,102795.88
2022-12-01T21:37:21.783Z,102793.28
2022-12-01T21:39:52.753Z,102797.63
2022-12-01T21:42:22.018Z,102801.09
2022-12-01T21:44:49.259Z,102784.69
2022-12-01T21:47:20.629Z,102785.53
2022-12-01T21:49:50.529Z,102789.00
2022-12-01T21:52:20.088Z,102777.75
2022-12-01T21:54:47.044Z,102775.94
2022-12-01T21:57:39.784Z,102784.56
2022-12-01T22:00:35.620Z,102785.38
2022-12-01T22:03:08.003Z,102781.94
2022-12-01T22:05:40.317Z,102774.13
2022-12-01T22:08:32.346Z,102779.13
2022-12-01T22:11:20.828Z,102785.94
2022-12-01T22:13:50.419Z,102789.34
2022-12-01T22:16:21.122Z,102779.78
2022-12-01T22:18:51.712Z,102780.53
2022-12-01T22:21:23.930Z,102784.84
2022-12-01T22:24:01.010Z,102777.91
2022-12-01T22:26:27.824Z,102781.44
2022-12-01T22:28:57.886Z,102773.69
2022-12-01T22:31:24.363Z,102781.47
2022-12-01T22:34:00.127Z,102772.00
2022-12-01T22:36:31.363Z,102765.16
2022-12-01T22:38:58.057Z,102774.72
2022-12-01T22:41:24.731Z,102771.28
2022-12-01T22:43:55.926Z,102769.53
2022-12-01T22:46:26.854Z,102769.50
2022-12-01T22:49:19.389Z,102772.84
2022-12-01T22:52:02.127Z,102770.13
2022-12-01T22:54:34.609Z,102775.22
2022-12-01T22:57:05.148Z,102774.31
2022-12-01T22:59:35.460Z,102783.88
2022-12-01T23:02:14.401Z,102772.69
2022-12-01T23:04:45.114Z,102769.31
2022-12-01T23:07:26.488Z,102770.91
2022-12-01T23:09:53.115Z,102771.72
2022-12-01T23:12:30.697Z,102777.78
2022-12-01T23:15:00.769Z,102775.19
2022-12-01T23:17:29.626Z,102776.97
2022-12-01T23:20:32.136Z,102776.16
2022-12-01T23:23:05.014Z,102766.59
2022-12-01T23:25:31.872Z,102770.88
2022-12-01T23:28:02.743Z,102763.03
2022-12-01T23:30:29.356Z,102762.91
2022-12-01T23:33:03.894Z,102768.00
2022-12-01T23:35:39.011Z,102760.22
2022-12-01T23:38:05.501Z,102766.31
2022-12-01T23:40:36.109Z,102765.59
2022-12-01T23:43:26.763Z,102761.34
2022-12-01T23:46:06.610Z,102765.63
2022-12-01T23:48:41.558Z,102764.75
2022-12-01T23:51:25.354Z,102763.03
2022-12-01T23:53:53.735Z,102762.16
2022-12-01T23:56:22.977Z,102759.53
2022-12-01T23:58:50.477Z,102757.66
